Time;durP1;ratioP1;P1;durP2;ratioP2;P2;SDS_P1;SDS_P2;PMS_P1;PMS_P2;Temp;Humidity;BMP_temperature;BMP_pressure;BME280_temperature;BME280_humidity;BME280_pressure;Samples;Min_cycle;Max_cycle;Signal;HPM_P1;HPM_P2
2023/10/01 00:00:46;;;;;;;4.53;2.17;;;29.80;31.80;;;;;;5007004;28;20692;-69
2023/10/01 00:03:14;;;;;;;2.93;2.07;;;29.80;31.70;;;;;;5011899;28;20196;-68
2023/10/01 00:05:42;;;;;;;8.47;2.37;;;29.90;31.80;;;;;;5013215;28;20197;-70
2023/10/01 00:08:12;;;;;;;8.97;2.43;;;30.10;30.90;;;;;;5020983;28;20182;-67
2023/10/01 00:10:42;;;;;;;5.67;2.70;;;30.10;30.80;;;;;;5012296;28;20677;-69
2023/10/01 00:13:09;;;;;;;3.03;2.07;;;30.30;31.10;;;;;;5010676;28;20193;-70
2023/10/01 00:15:37;;;;;;;4.57;2.50;;;30.40;31.00;;;;;;5012127;28;20213;-69
2023/10/01 00:18:07;;;;;;;3.37;2.47;;;30.60;30.80;;;;;;5011145;28;20189;-69
2023/10/01 00:20:35;;;;;;;3.00;2.47;;;30.50;30.60;;;;;;5018159;28;20594;-68
2023/10/01 00:23:05;;;;;;;4.50;2.23;;;30.70;30.40;;;;;;5005135;28;20281;-68
2023/10/01 00:25:35;;;;;;;4.43;2.53;;;30.80;30.60;;;;;;4990385;28;20185;-67
2023/10/01 00:28:07;;;;;;;7.97;2.60;;;30.70;29.90;;;;;;4993455;28;20208;-70
2023/10/01 00:30:36;;;;;;;5.10;2.60;;;30.80;29.80;;;;;;4991390;28;20555;-72
2023/10/01 00:33:13;;;;;;;4.60;2.70;;;30.90;30.00;;;;;;4993558;28;20593;-73
2023/10/01 00:35:41;;;;;;;3.57;2.63;;;30.80;29.30;;;;;;4993421;28;20277;-69
2023/10/01 00:38:11;;;;;;;5.93;2.60;;;30.80;29.00;;;;;;4992519;28;20220;-70
2023/10/01 00:40:42;;;;;;;3.97;2.67;;;30.80;29.20;;;;;;4999306;28;20186;-71
2023/10/01 00:43:11;;;;;;;5.73;2.77;;;31.00;28.70;;;;;;4997852;28;20196;-70
2023/10/01 00:45:38;;;;;;;8.63;3.53;;;31.20;28.60;;;;;;4985126;28;20664;-72
2023/10/01 00:48:13;;;;;;;4.03;2.53;;;31.30;28.70;;;;;;4992974;28;20581;-69
2023/10/01 00:50:42;;;;;;;5.05;2.88;;;31.40;27.60;;;;;;4992687;28;20189;-69
2023/10/01 00:53:10;;;;;;;3.55;2.80;;;31.60;28.00;;;;;;4992779;28;20222;-74
2023/10/01 00:55:39;;;;;;;7.57;2.80;;;31.80;28.40;;;;;;4992282;28;20762;-70
2023/10/01 00:58:06;;;;;;;4.83;2.73;;;31.80;27.80;;;;;;4995541;28;20181;-70
2023/10/01 01:00:34;;;;;;;5.90;2.95;;;31.90;27.00;;;;;;4999924;28;20177;-74
2023/10/01 01:03:18;;;;;;;4.93;2.60;;;31.90;27.40;;;;;;4994882;28;20260;-70
2023/10/01 01:05:57;;;;;;;4.93;2.80;;;32.00;27.20;;;;;;4993777;28;20182;-72
2023/10/01 01:08:33;;;;;;;5.88;2.40;;;32.10;26.50;;;;;;4993992;28;20239;-72
2023/10/01 01:11:02;;;;;;;4.60;2.55;;;32.30;26.60;;;;;;4995540;28;20400;-71
2023/10/01 01:13:30;;;;;;;3.22;2.40;;;32.40;26.20;;;;;;4990569;28;20222;-71
2023/10/01 01:16:00;;;;;;;4.95;2.30;;;32.70;25.90;;;;;;4993795;28;20680;-72
2023/10/01 01:18:34;;;;;;;4.72;2.22;;;32.80;25.20;;;;;;4991774;28;20178;-74
2023/10/01 01:21:09;;;;;;;5.93;2.30;;;32.90;25.00;;;;;;4987197;28;20238;-72
2023/10/01 01:23:37;;;;;;;3.58;2.28;;;32.90;24.90;;;;;;4991156;28;20218;-71
2023/10/01 01:26:07;;;;;;;4.20;2.40;;;33.10;24.00;;;;;;4991514;28;20198;-73
2023/10/01 01:28:35;;;;;;;4.13;2.55;;;33.10;24.30;;;;;;4985309;28;20336;-72
2023/10/01 01:31:04;;;;;;;8.38;2.72;;;33.20;24.70;;;;;;4991085;28;20646;-72
2023/10/01 01:33:33;;;;;;;5.65;2.22;;;33.40;24.80;;;;;;4990774;28;20201;-70
2023/10/01 01:36:05;;;;;;;7.47;2.67;;;33.40;24.70;;;;;;4992110;28;20332;-73
2023/10/01 01:38:37;;;;;;;3.45;1.90;;;33.60;24.70;;;;;;4992086;28;20550;-69
2023/10/01 01:41:06;;;;;;;4.85;2.38;;;33.60;23.00;;;;;;4992756;28;20197;-74
2023/10/01 01:43:38;;;;;;;5.72;2.30;;;33.80;23.10;;;;;;4996395;28;20186;-73
2023/10/01 01:46:08;;;;;;;6.25;2.53;;;33.90;23.10;;;;;;4994910;28;20266;-70
2023/10/01 01:48:40;;;;;;;5.43;2.60;;;34.00;22.90;;;;;;4996588;28;20182;-70
2023/10/01 01:51:08;;;;;;;3.58;2.30;;;34.30;23.20;;;;;;4996511;28;20181;-75
2023/10/01 01:53:41;;;;;;;3.67;2.10;;;34.00;22.70;;;;;;4996643;28;20276;-71
2023/10/01 01:56:12;;;;;;;3.85;2.05;;;34.00;22.40;;;;;;4996147;28;20226;-70
2023/10/01 01:58:40;;;;;;;3.67;2.00;;;34.40;22.30;;;;;;4996226;28;20265;-75
2023/10/01 02:01:08;;;;;;;2.22;1.73;;;34.20;21.10;;;;;;4995004;28;20212;-70
2023/10/01 02:03:39;;;;;;;5.72;1.88;;;34.30;21.10;;;;;;4996044;28;20213;-73
2023/10/01 02:06:08;;;;;;;4.15;2.13;;;34.30;21.30;;;;;;4999050;28;20181;-72
2023/10/01 02:08:53;;;;;;;2.83;2.25;;;34.50;20.90;;;;;;4996537;28;20679;-69
2023/10/01 02:11:22;;;;;;;3.22;2.00;;;34.70;21.30;;;;;;4995925;28;20196;-72
2023/10/01 02:13:51;;;;;;;3.78;1.67;;;34.50;20.80;;;;;;4993989;28;20186;-71
2023/10/01 02:16:40;;;;;;;4.50;2.15;;;34.80;20.80;;;;;;4997709;28;20182;-68
2023/10/01 02:19:18;;;;;;;5.82;2.13;;;35.00;20.60;;;;;;4990542;28;20241;-70
2023/10/01 02:21:56;;;;;;;4.63;2.13;;;35.00;20.80;;;;;;4995893;28;20186;-75
2023/10/01 02:24:37;;;;;;;3.55;1.98;;;35.10;20.80;;;;;;4992809;28;20229;-73
2023/10/01 02:27:05;;;;;;;3.22;1.83;;;35.30;20.40;;;;;;4988580;28;20244;-72
2023/10/01 02:29:32;;;;;;;3.85;2.05;;;35.60;20.50;;;;;;4995134;28;20175;-74
2023/10/01 02:32:04;;;;;;;2.30;1.90;;;35.60;19.00;;;;;;4994609;28;20197;-73
2023/10/01 02:34:32;;;;;;;4.50;2.20;;;35.30;19.80;;;;;;4995193;28;20182;-73
2023/10/01 02:37:03;;;;;;;4.10;1.90;;;35.60;19.60;;;;;;4996013;28;20182;-74
2023/10/01 02:39:30;;;;;;;2.83;1.65;;;35.80;19.80;;;;;;4995390;28;20517;-74
2023/10/01 02:44:31;;;;;;;4.70;1.83;;;35.70;19.40;;;;;;4994860;28;20217;-74
2023/10/01 02:47:09;;;;;;;2.58;1.73;;;36.00;19.50;;;;;;4995301;28;20648;-76
2023/10/01 02:49:47;;;;;;;2.92;1.70;;;35.90;19.30;;;;;;4991673;28;20273;-72
2023/10/01 02:52:16;;;;;;;3.33;1.55;;;36.10;19.40;;;;;;4988420;28;20174;-74
2023/10/01 02:54:44;;;;;;;3.72;2.10;;;36.00;19.20;;;;;;4993429;28;20178;-77
2023/10/01 02:57:23;;;;;;;2.58;1.80;;;36.00;19.60;;;;;;4995129;28;20189;-70
2023/10/01 03:02:51;;;;;;;5.40;1.90;;;36.50;19.10;;;;;;4993655;28;20213;-72
2023/10/01 03:08:03;;;;;;;3.45;1.58;;;37.40;16.20;;;;;;4993022;28;20174;-74
2023/10/01 03:10:31;;;;;;;3.13;1.98;;;37.40;15.90;;;;;;4986928;28;20652;-74
2023/10/01 03:13:15;;;;;;;2.55;1.45;;;37.30;14.90;;;;;;4991717;28;20186;-76
2023/10/01 03:15:43;;;;;;;3.90;1.40;;;36.90;15.50;;;;;;4990421;28;20545;-74
2023/10/01 03:25:58;;;;;;;2.55;1.70;;;36.90;15.10;;;;;;5013746;28;20225;-73
2023/10/01 03:29:12;;;;;;;7.35;1.20;;;36.70;15.40;;;;;;5016339;28;20192;-75
2023/10/01 03:31:20;;;;;;;6.88;1.27;;;36.90;15.40;;;;;;5013350;28;20185;-73
2023/10/01 03:33:53;;;;;;;4.38;1.38;;;36.90;14.60;;;;;;5014154;28;20184;-73
2023/10/01 03:36:25;;;;;;;3.85;1.40;;;36.70;14.00;;;;;;5013308;28;20196;-74
2023/10/01 03:39:23;;;;;;;4.10;1.40;;;36.90;13.90;;;;;;5013034;28;20185;-73
2023/10/01 03:47:29;;;;;;;2.22;1.38;;;36.90;13.70;;;;;;5014932;28;20185;-72
2023/10/01 03:49:57;;;;;;;4.13;1.20;;;37.20;14.00;;;;;;5009493;28;20201;-71
2023/10/01 03:52:29;;;;;;;4.25;1.30;;;37.40;13.40;;;;;;5013299;28;20185;-74
2023/10/01 03:57:25;;;;;;;2.95;1.30;;;37.50;13.20;;;;;;5012512;28;20663;-74
2023/10/01 03:59:52;;;;;;;2.67;1.10;;;37.50;13.50;;;;;;5010836;28;20181;-75
2023/10/01 04:02:28;;;;;;;3.63;1.20;;;37.40;13.10;;;;;;5012882;28;20212;-74
2023/10/01 04:05:04;;;;;;;2.33;1.10;;;37.30;13.30;;;;;;5012345;28;20255;-76
2023/10/01 04:07:43;;;;;;;2.92;1.23;;;37.70;13.50;;;;;;5011807;28;20465;-73
2023/10/01 04:10:14;;;;;;;3.83;1.40;;;37.90;13.40;;;;;;5010224;28;20634;-73
2023/10/01 04:12:44;;;;;;;2.90;1.20;;;37.40;13.70;;;;;;5009918;28;20192;-72
2023/10/01 04:15:27;;;;;;;3.05;1.42;;;37.40;13.80;;;;;;5012679;28;21819;-69
2023/10/01 04:23:30;;;;;;;6.45;1.60;;;37.60;13.80;;;;;;5012646;28;20225;-71
2023/10/01 04:26:05;;;;;;;3.45;1.13;;;37.80;13.40;;;;;;5010203;28;20205;-72
2023/10/01 04:28:35;;;;;;;3.22;1.65;;;38.10;13.60;;;;;;5010163;28;20657;-72
2023/10/01 04:31:18;;;;;;;3.22;1.20;;;38.40;13.20;;;;;;5002588;28;21515;-74
2023/10/01 04:33:49;;;;;;;2.55;1.30;;;37.90;13.20;;;;;;5010670;28;20543;-71
2023/10/01 04:36:17;;;;;;;4.03;1.30;;;38.00;13.20;;;;;;5012487;28;20196;-70
2023/10/01 04:38:48;;;;;;;2.58;1.20;;;38.10;13.30;;;;;;5007890;28;20189;-70
2023/10/01 04:41:16;;;;;;;6.10;1.30;;;38.70;13.20;;;;;;5011627;28;20185;-74
2023/10/01 04:44:27;;;;;;;2.03;1.20;;;38.60;12.70;;;;;;5010347;28;20181;-69
2023/10/01 04:46:40;;;;;;;4.05;1.42;;;38.20;13.00;;;;;;5002761;28;20605;-69
2023/10/01 04:51:58;;;;;;;3.03;1.60;;;38.20;13.00;;;;;;5014847;28;20231;-73
2023/10/01 04:54:26;;;;;;;7.78;1.30;;;38.30;13.00;;;;;;5011612;28;20189;-69
2023/10/01 04:56:57;;;;;;;5.63;1.45;;;38.40;12.90;;;;;;5026107;28;20180;-72
2023/10/01 04:59:27;;;;;;;5.88;1.50;;;38.30;13.10;;;;;;5011258;28;20181;-70
2023/10/01 05:01:58;;;;;;;6.15;1.50;;;37.40;13.50;;;;;;5011353;28;20550;-71
2023/10/01 05:04:27;;;;;;;2.88;1.20;;;36.80;14.10;;;;;;5011675;28;22109;-70
2023/10/01 05:07:04;;;;;;;3.33;1.13;;;36.40;14.40;;;;;;5009235;28;20647;-68
2023/10/01 05:09:36;;;;;;;2.65;1.30;;;36.20;14.30;;;;;;5009185;28;20628;-70
2023/10/01 05:12:08;;;;;;;3.53;1.40;;;37.60;13.70;;;;;;5009349;28;20185;-69
2023/10/01 05:14:56;;;;;;;3.13;1.17;;;38.20;13.40;;;;;;5024477;28;20626;-68
2023/10/01 05:17:22;;;;;;;5.03;1.60;;;38.40;13.50;;;;;;5011789;28;20201;-70
2023/10/01 05:19:51;;;;;;;5.68;1.38;;;37.90;13.90;;;;;;5012203;28;20184;-69
2023/10/01 05:22:19;;;;;;;2.20;1.40;;;38.10;13.70;;;;;;5010781;28;20189;-71
2023/10/01 05:24:49;;;;;;;3.30;1.73;;;38.20;13.40;;;;;;5013900;28;20224;-70
2023/10/01 05:27:19;;;;;;;2.83;1.50;;;37.70;13.80;;;;;;5012248;28;20185;-77
2023/10/01 05:29:48;;;;;;;4.38;1.48;;;36.60;14.70;;;;;;5012182;28;20204;-73
2023/10/01 05:32:18;;;;;;;7.32;1.60;;;35.90;15.10;;;;;;5012100;28;20181;-71
2023/10/01 05:34:50;;;;;;;3.30;1.38;;;35.80;15.40;;;;;;5012116;28;20272;-67
2023/10/01 05:37:24;;;;;;;3.58;1.20;;;35.80;15.40;;;;;;5012311;28;20188;-68
2023/10/01 05:39:58;;;;;;;7.45;1.73;;;36.00;15.40;;;;;;5007443;28;20185;-70
2023/10/01 05:42:28;;;;;;;5.47;1.70;;;35.60;15.20;;;;;;5028039;28;20648;-70
2023/10/01 05:44:59;;;;;;;3.45;1.48;;;35.40;15.70;;;;;;5012518;28;20315;-70
2023/10/01 05:48:18;;;;;;;5.57;1.98;;;35.30;16.10;;;;;;5011574;28;20243;-69
2023/10/01 05:50:18;;;;;;;4.07;1.20;;;35.10;16.10;;;;;;5001516;28;20280;-71
2023/10/01 05:52:50;;;;;;;4.55;1.60;;;35.00;15.90;;;;;;5012550;28;20261;-68
2023/10/01 05:55:19;;;;;;;4.78;1.30;;;34.90;16.50;;;;;;5014077;28;20293;-71
2023/10/01 05:57:50;;;;;;;3.20;1.50;;;35.00;16.40;;;;;;5010885;28;20578;-67
2023/10/01 06:00:18;;;;;;;4.43;1.77;;;35.60;16.00;;;;;;5008902;28;20213;-70
2023/10/01 06:03:00;;;;;;;8.02;1.50;;;35.60;16.10;;;;;;5010379;28;20257;-71
2023/10/01 06:05:42;;;;;;;4.57;1.60;;;35.40;16.10;;;;;;5010847;28;20271;-71
2023/10/01 06:08:17;;;;;;;2.80;1.30;;;35.70;15.70;;;;;;5014515;28;20177;-70
2023/10/01 06:11:05;;;;;;;4.10;1.27;;;35.40;15.50;;;;;;5011780;28;20647;-70
2023/10/01 06:13:38;;;;;;;3.35;1.95;;;35.30;15.40;;;;;;5009591;28;20181;-70
2023/10/01 06:16:16;;;;;;;3.55;1.45;;;35.30;15.30;;;;;;5010848;28;20533;-73
2023/10/01 06:18:56;;;;;;;2.63;1.27;;;35.80;15.10;;;;;;5011424;28;20220;-71
2023/10/01 06:21:34;;;;;;;2.92;1.60;;;36.30;14.30;;;;;;5011909;28;20181;-71
2023/10/01 06:24:07;;;;;;;6.78;1.45;;;36.20;14.20;;;;;;5010169;28;20232;-73
2023/10/01 06:26:56;;;;;;;6.53;1.75;;;35.70;14.40;;;;;;5025021;28;20243;-70
2023/10/01 06:29:23;;;;;;;2.15;1.20;;;35.30;14.80;;;;;;5012845;28;20193;-71
2023/10/01 06:32:00;;;;;;;2.67;1.50;;;35.00;15.30;;;;;;5012833;28;20288;-70
2023/10/01 06:34:38;;;;;;;4.78;1.50;;;35.00;15.20;;;;;;5012810;28;20223;-72
2023/10/01 06:37:06;;;;;;;3.75;1.30;;;34.90;15.60;;;;;;5015352;28;20236;-70
2023/10/01 06:39:35;;;;;;;5.50;1.40;;;34.80;15.30;;;;;;5010991;28;20193;-72
2023/10/01 06:42:18;;;;;;;2.85;1.50;;;34.60;15.70;;;;;;5014482;28;20197;-70
2023/10/01 06:44:52;;;;;;;4.55;1.83;;;34.50;15.40;;;;;;5012582;28;20201;-70
2023/10/01 06:47:22;;;;;;;2.75;1.50;;;34.60;15.50;;;;;;5011476;28;20196;-71
2023/10/01 06:49:57;;;;;;;3.03;1.50;;;34.60;15.70;;;;;;5013151;28;20185;-71
2023/10/01 06:52:45;;;;;;;5.68;1.27;;;34.50;15.70;;;;;;5014539;28;20685;-71
2023/10/01 06:55:36;;;;;;;4.10;1.73;;;34.70;15.30;;;;;;5015053;28;20273;-71
2023/10/01 06:58:06;;;;;;;4.03;1.60;;;34.60;15.10;;;;;;5013880;28;20197;-71
2023/10/01 07:00:37;;;;;;;2.70;1.50;;;34.80;15.00;;;;;;5014717;28;20275;-73
2023/10/01 07:03:23;;;;;;;4.22;1.60;;;34.70;15.40;;;;;;5015294;28;20264;-72
2023/10/01 07:05:52;;;;;;;5.07;1.52;;;34.50;15.80;;;;;;5014529;28;20209;-71
2023/10/01 07:08:19;;;;;;;6.28;1.50;;;34.30;15.90;;;;;;5014976;28;20340;-73
2023/10/01 07:10:50;;;;;;;2.25;1.50;;;34.20;15.60;;;;;;5014111;28;20177;-71
2023/10/01 07:13:18;;;;;;;3.33;1.70;;;34.10;15.90;;;;;;5014340;28;20196;-69
2023/10/01 07:15:48;;;;;;;6.20;1.60;;;34.00;15.30;;;;;;5014898;28;20177;-70
2023/10/01 07:18:15;;;;;;;3.17;1.52;;;33.90;15.50;;;;;;5014360;28;20258;-71
2023/10/01 07:20:44;;;;;;;3.80;1.73;;;34.50;14.90;;;;;;5014818;28;20189;-70
2023/10/01 07:23:21;;;;;;;3.00;1.58;;;34.60;14.80;;;;;;5013536;28;20306;-70
2023/10/01 07:25:49;;;;;;;3.67;1.83;;;34.40;14.60;;;;;;5014229;28;20701;-72
2023/10/01 07:28:19;;;;;;;6.03;1.55;;;34.20;15.10;;;;;;5012289;28;20181;-74
2023/10/01 07:30:56;;;;;;;4.30;1.85;;;34.10;15.20;;;;;;5014527;28;20538;-72
2023/10/01 07:33:38;;;;;;;4.78;1.67;;;33.90;15.30;;;;;;5010925;28;20204;-72
2023/10/01 07:36:10;;;;;;;2.75;1.80;;;33.90;15.60;;;;;;5009223;28;20185;-72
2023/10/01 07:38:48;;;;;;;7.85;1.73;;;33.80;15.70;;;;;;5007998;28;20543;-72
2023/10/01 07:44:38;;;;;;;2.88;1.60;;;33.50;16.00;;;;;;5011544;28;20211;-71
2023/10/01 07:47:06;;;;;;;6.97;2.25;;;33.30;16.10;;;;;;5012627;28;20186;-72
2023/10/01 07:49:47;;;;;;;1.88;1.60;;;33.30;16.50;;;;;;5011776;28;20268;-75
2023/10/01 07:52:20;;;;;;;7.70;1.60;;;33.10;16.20;;;;;;5014145;28;20658;-73
2023/10/01 07:54:49;;;;;;;7.45;1.77;;;33.10;16.50;;;;;;5011235;28;20191;-71
2023/10/01 07:57:24;;;;;;;2.78;1.58;;;33.10;16.40;;;;;;5010859;28;20627;-75
2023/10/01 07:59:53;;;;;;;6.10;1.90;;;33.10;16.60;;;;;;5013699;28;20254;-73
2023/10/01 08:02:21;;;;;;;4.65;1.83;;;32.90;17.10;;;;;;5013276;28;20180;-74
2023/10/01 08:04:58;;;;;;;4.07;1.83;;;32.80;17.30;;;;;;5014657;28;20224;-74
2023/10/01 08:07:30;;;;;;;3.58;1.80;;;32.70;17.40;;;;;;5015533;28;20491;-74
2023/10/01 08:09:59;;;;;;;7.97;1.80;;;32.50;17.60;;;;;;5015239;28;20241;-74
2023/10/01 08:13:24;;;;;;;4.78;1.80;;;32.40;17.80;;;;;;5026572;28;20243;-76
2023/10/01 08:21:17;;;;;;;6.60;2.13;;;32.20;18.30;;;;;;4950418;28;20195;-72
2023/10/01 08:23:48;;;;;;;3.00;1.67;;;32.10;18.40;;;;;;5010843;28;20220;-74
2023/10/01 08:29:03;;;;;;;6.80;2.28;;;31.90;18.70;;;;;;5026703;28;20242;-73
2023/10/01 08:34:28;;;;;;;5.53;2.72;;;31.70;19.00;;;;;;5019854;28;20173;-72
2023/10/01 08:37:06;;;;;;;5.80;2.60;;;31.50;19.50;;;;;;5021937;28;20215;-72
2023/10/01 08:39:34;;;;;;;5.45;2.80;;;31.30;19.80;;;;;;5015128;28;20250;-73
2023/10/01 08:42:09;;;;;;;5.25;2.92;;;31.10;20.20;;;;;;5017525;28;20184;-74
2023/10/01 08:45:03;;;;;;;8.52;2.70;;;31.00;20.40;;;;;;5015307;28;20204;-75
2023/10/01 08:47:37;;;;;;;5.55;2.13;;;30.80;20.50;;;;;;5010074;28;20193;-74
2023/10/01 08:50:18;;;;;;;6.70;2.92;;;30.60;20.80;;;;;;5021345;28;20206;-73
2023/10/01 08:52:58;;;;;;;4.28;2.30;;;30.50;21.40;;;;;;5017230;28;20188;-72
2023/10/01 09:00:56;;;;;;;5.30;2.55;;;30.20;22.10;;;;;;5015227;28;20181;-72
2023/10/01 09:03:34;;;;;;;4.43;2.30;;;30.10;22.20;;;;;;5022511;28;20181;-75
2023/10/01 09:06:24;;;;;;;5.03;2.47;;;30.20;22.20;;;;;;5012983;28;20235;-74
2023/10/01 09:08:55;;;;;;;4.05;2.40;;;30.10;22.20;;;;;;5013115;28;20216;-73
2023/10/01 09:11:49;;;;;;;4.75;2.50;;;30.10;22.70;;;;;;5010709;28;20197;-71
2023/10/01 09:14:25;;;;;;;7.18;2.30;;;30.00;22.80;;;;;;5014103;28;20188;-75
2023/10/01 09:16:58;;;;;;;3.22;1.70;;;30.00;22.80;;;;;;5011790;28;20218;-72
2023/10/01 09:19:42;;;;;;;2.47;2.17;;;29.90;23.00;;;;;;5015208;28;20272;-73
2023/10/01 09:22:58;;;;;;;4.43;2.35;;;29.90;23.10;;;;;;5015916;28;20192;-71
2023/10/01 09:25:25;;;;;;;6.60;2.53;;;29.90;22.80;;;;;;4978562;28;20276;-72
2023/10/01 09:28:19;;;;;;;6.13;2.45;;;29.80;22.60;;;;;;4991571;28;20640;-73
2023/10/01 09:33:51;;;;;;;4.93;2.20;;;29.60;23.40;;;;;;4983635;28;20609;-73
2023/10/01 09:36:45;;;;;;;3.73;2.17;;;29.50;23.40;;;;;;4988244;28;20182;-72
2023/10/01 09:39:22;;;;;;;4.23;2.20;;;29.30;23.50;;;;;;4987862;28;20493;-71
2023/10/01 09:41:53;;;;;;;3.00;1.93;;;29.20;23.40;;;;;;4985250;28;20248;-76
2023/10/01 09:44:21;;;;;;;9.00;2.40;;;29.00;23.70;;;;;;4988367;28;20221;-73
2023/10/01 09:46:50;;;;;;;4.60;2.20;;;28.90;24.00;;;;;;4988084;28;20551;-73
2023/10/01 09:49:30;;;;;;;4.55;2.60;;;28.80;24.60;;;;;;4989565;28;20228;-73
2023/10/01 09:52:00;;;;;;;5.43;2.17;;;28.70;24.70;;;;;;4992579;28;20652;-73
2023/10/01 09:54:28;;;;;;;4.13;3.07;;;28.70;24.90;;;;;;4976393;28;20186;-74
2023/10/01 09:57:08;;;;;;;11.27;5.57;;;28.70;25.00;;;;;;4992908;28;20178;-72
2023/10/01 09:59:40;;;;;;;8.20;3.50;;;28.60;25.00;;;;;;4993427;28;20174;-76
2023/10/01 10:02:09;;;;;;;21.20;5.97;;;28.60;25.50;;;;;;4988976;28;20613;-73
2023/10/01 10:04:39;;;;;;;63.50;11.83;;;28.70;33.40;;;;;;4989699;28;20706;-74
2023/10/01 10:07:08;;;;;;;78.80;15.27;;;26.50;51.40;;;;;;4995125;28;20224;-72
2023/10/01 10:09:37;;;;;;;72.90;16.10;;;24.50;62.40;;;;;;4993052;28;20174;-73
2023/10/01 10:12:07;;;;;;;61.70;13.67;;;23.70;66.50;;;;;;4991697;28;20645;-73
2023/10/01 10:14:35;;;;;;;65.17;14.27;;;23.10;69.00;;;;;;4995248;28;20189;-70
2023/10/01 10:20:25;;;;;;;62.40;13.67;;;22.30;72.70;;;;;;4996018;28;20189;-70
2023/10/01 10:23:29;;;;;;;73.23;13.67;;;22.10;73.50;;;;;;4999309;28;20256;-69
2023/10/01 10:26:13;;;;;;;69.30;13.63;;;21.90;74.50;;;;;;5003946;28;20221;-70
2023/10/01 10:28:54;;;;;;;64.13;13.60;;;21.80;74.70;;;;;;4994728;28;20252;-71
2023/10/01 10:31:34;;;;;;;68.27;12.67;;;21.60;75.40;;;;;;5004424;28;20546;-75
2023/10/01 10:34:22;;;;;;;59.23;12.83;;;21.60;75.40;;;;;;4992672;28;20189;-70
2023/10/01 10:36:57;;;;;;;58.00;11.97;;;21.40;76.00;;;;;;5005695;28;20714;-69
2023/10/01 10:39:49;;;;;;;75.13;13.93;;;21.40;76.10;;;;;;4988827;28;20189;-70
2023/10/01 10:42:29;;;;;;;59.47;12.70;;;21.30;76.30;;;;;;4995590;28;20205;-69
2023/10/01 10:45:26;;;;;;;59.17;11.40;;;21.20;76.50;;;;;;4995731;28;20217;-70
2023/10/01 10:50:44;;;;;;;59.23;12.30;;;21.00;76.80;;;;;;4994428;28;20188;-69
2023/10/01 10:53:22;;;;;;;61.63;12.17;;;20.90;77.00;;;;;;4993746;28;20190;-70
2023/10/01 10:56:10;;;;;;;47.63;11.23;;;20.90;76.90;;;;;;4999667;28;20216;-71
2023/10/01 10:59:01;;;;;;;62.47;12.47;;;20.80;76.70;;;;;;4993452;28;20276;-69
2023/10/01 11:01:43;;;;;;;55.20;11.03;;;20.80;76.50;;;;;;4995657;28;20181;-69
2023/10/01 11:04:12;;;;;;;48.03;10.43;;;20.80;75.90;;;;;;5000180;28;20189;-74
2023/10/01 11:06:42;;;;;;;61.03;11.90;;;20.60;76.00;;;;;;4989571;28;20240;-72
2023/10/01 11:09:24;;;;;;;57.83;11.07;;;20.70;76.30;;;;;;5001503;28;20193;-72
2023/10/01 11:12:34;;;;;;;59.03;10.73;;;20.70;76.30;;;;;;4993352;28;20227;-72
2023/10/01 11:15:19;;;;;;;61.43;11.73;;;20.70;76.10;;;;;;4999494;28;20284;-68
2023/10/01 11:17:47;;;;;;;54.80;10.87;;;20.60;75.50;;;;;;4981530;28;20191;-74
2023/10/01 11:20:24;;;;;;;47.80;11.07;;;20.50;73.80;;;;;;5000567;28;20181;-70
2023/10/01 11:22:54;;;;;;;47.70;10.03;;;20.50;72.90;;;;;;4891171;28;2995558;-68
2023/10/01 11:25:22;;;;;;;54.00;10.53;;;20.40;72.50;;;;;;5028260;28;20263;-72
2023/10/01 11:28:05;;;;;;;56.83;10.50;;;20.40;72.20;;;;;;5011401;28;20182;-70
2023/10/01 11:30:42;;;;;;;49.30;11.07;;;20.30;72.10;;;;;;5011415;28;20247;-69
2023/10/01 11:35:41;;;;;;;45.70;9.67;;;20.40;72.40;;;;;;5008974;28;20189;-70
2023/10/01 11:38:18;;;;;;;50.73;10.23;;;20.40;72.70;;;;;;5014635;28;20189;-69
2023/10/01 11:43:39;;;;;;;52.47;9.77;;;20.30;73.10;;;;;;5010626;28;20192;-72
2023/10/01 11:46:20;;;;;;;57.17;10.53;;;20.30;73.10;;;;;;5021205;28;20216;-73
2023/10/01 11:49:04;;;;;;;46.80;9.43;;;20.30;73.50;;;;;;5013642;28;20235;-70
2023/10/01 11:51:41;;;;;;;59.73;11.33;;;20.20;73.30;;;;;;5011954;28;20188;-70
2023/10/01 11:54:14;;;;;;;50.13;10.37;;;20.20;73.60;;;;;;5012999;28;20192;-71
2023/10/01 11:56:43;;;;;;;52.70;10.73;;;20.10;73.50;;;;;;5013946;28;20192;-69
2023/10/01 11:59:22;;;;;;;46.70;9.83;;;20.10;73.50;;;;;;5012815;28;20184;-73
2023/10/01 12:01:54;;;;;;;49.60;10.07;;;20.10;73.40;;;;;;5013374;28;20682;-70
2023/10/01 12:04:43;;;;;;;56.00;10.50;;;20.00;73.10;;;;;;5011344;28;20193;-70
2023/10/01 12:07:15;;;;;;;51.07;9.57;;;20.00;72.80;;;;;;5012497;28;20225;-69
2023/10/01 12:09:52;;;;;;;47.10;9.23;;;20.00;72.50;;;;;;5007694;28;20188;-72
2023/10/01 12:12:27;;;;;;;47.27;8.27;;;20.10;72.20;;;;;;5010707;28;20181;-72
2023/10/01 12:14:56;;;;;;;46.37;9.33;;;20.00;71.30;;;;;;5027843;28;20647;-70
2023/10/01 12:17:26;;;;;;;42.73;8.07;;;20.00;70.90;;;;;;5011684;28;20266;-74
2023/10/01 12:20:03;;;;;;;45.37;11.97;;;20.00;69.60;;;;;;5010968;28;20238;-70
2023/10/01 12:22:31;;;;;;;45.87;9.83;;;20.00;68.90;;;;;;5008508;28;20192;-69
2023/10/01 12:24:59;;;;;;;41.63;7.43;;;20.00;68.80;;;;;;5010045;28;20613;-72
2023/10/01 12:27:45;;;;;;;39.47;8.27;;;20.00;69.10;;;;;;5010854;28;20190;-71
2023/10/01 12:30:29;;;;;;;30.57;7.60;;;19.90;69.10;;;;;;5011494;28;20182;-73
2023/10/01 12:33:00;;;;;;;43.37;7.23;;;19.90;69.20;;;;;;5010781;28;20220;-73
2023/10/01 12:35:28;;;;;;;40.20;8.30;;;19.90;68.50;;;;;;5009527;28;20173;-73
2023/10/01 12:38:08;;;;;;;43.67;7.70;;;19.80;68.40;;;;;;5012040;28;20267;-71
2023/10/01 12:40:37;;;;;;;36.33;8.17;;;19.80;68.40;;;;;;5011610;28;20204;-73
2023/10/01 12:45:51;;;;;;;36.33;7.33;;;19.70;68.60;;;;;;5009980;28;20702;-74
2023/10/01 12:48:21;;;;;;;30.13;6.80;;;19.70;68.00;;;;;;5012869;28;20185;-68
2023/10/01 12:51:07;;;;;;;40.07;7.20;;;19.70;67.60;;;;;;5012503;28;20193;-71
2023/10/01 12:53:49;;;;;;;39.10;6.80;;;19.80;67.50;;;;;;5012812;28;20174;-72
2023/10/01 12:56:35;;;;;;;38.07;7.43;;;19.70;67.50;;;;;;5010318;28;20196;-74
2023/10/01 12:59:02;;;;;;;44.30;8.03;;;19.70;68.00;;;;;;5013107;28;20181;-74
2023/10/01 13:01:32;;;;;;;42.43;7.37;;;19.60;68.20;;;;;;5010994;28;20205;-74
2023/10/01 13:06:46;;;;;;;35.87;6.67;;;19.50;67.80;;;;;;5010716;28;20324;-73
2023/10/01 13:12:16;;;;;;;29.80;6.50;;;19.50;67.10;;;;;;5012552;28;20192;-72
2023/10/01 13:15:14;;;;;;;31.60;6.60;;;19.50;66.90;;;;;;5011226;28;20227;-75
2023/10/01 13:17:43;;;;;;;34.93;7.00;;;19.50;66.70;;;;;;5011887;28;20544;-75
2023/10/01 13:20:25;;;;;;;43.17;8.07;;;19.50;66.90;;;;;;5012648;28;20300;-74
2023/10/01 13:22:59;;;;;;;39.07;7.70;;;19.40;67.10;;;;;;5007098;28;20221;-74
2023/10/01 13:25:29;;;;;;;34.03;6.70;;;19.40;67.60;;;;;;5010108;28;20308;-72
2023/10/01 13:28:04;;;;;;;35.93;7.33;;;19.40;68.00;;;;;;5012751;28;20189;-76
2023/10/01 13:33:25;;;;;;;39.10;7.23;;;19.30;68.20;;;;;;5012613;28;20196;-72
2023/10/01 13:35:56;;;;;;;33.30;6.07;;;19.30;68.00;;;;;;5012225;28;20194;-75
2023/10/01 14:08:44;;;;;;;32.17;6.47;;;19.20;69.30;;;;;;5014570;28;20189;-74
2023/10/01 14:11:15;;;;;;;39.23;7.63;;;19.10;69.90;;;;;;5014622;28;20185;-73
2023/10/01 14:13:44;;;;;;;27.63;6.43;;;19.10;70.30;;;;;;5014240;28;20181;-73
2023/10/01 14:16:12;;;;;;;32.23;6.97;;;19.10;70.20;;;;;;5013468;28;20196;-70
2023/10/01 14:18:53;;;;;;;31.37;6.50;;;19.00;70.00;;;;;;5013836;28;20247;-70
2023/10/01 14:21:25;;;;;;;34.43;6.67;;;19.10;69.80;;;;;;5013681;28;20189;-70
2023/10/01 14:26:46;;;;;;;25.63;7.07;;;19.30;68.60;;;;;;5017526;28;20713;-71
2023/10/01 14:29:16;;;;;;;35.87;6.33;;;19.30;68.40;;;;;;5023348;28;20227;-72
2023/10/01 14:31:50;;;;;;;37.97;7.03;;;19.40;68.30;;;;;;5012604;28;20189;-71
2023/10/01 14:34:21;;;;;;;29.07;6.50;;;19.60;67.60;;;;;;5012875;28;20216;-71
2023/10/01 14:36:54;;;;;;;37.13;7.00;;;19.70;67.70;;;;;;5019688;28;20334;-69
2023/10/01 14:39:30;;;;;;;36.63;7.43;;;19.60;67.40;;;;;;5019717;28;20189;-70
2023/10/01 14:41:57;;;;;;;34.93;6.13;;;19.70;67.20;;;;;;5016664;28;20180;-70
2023/10/01 14:44:24;;;;;;;32.00;6.70;;;19.60;67.70;;;;;;5016354;28;20177;-70
2023/10/01 14:46:54;;;;;;;32.20;6.10;;;19.70;67.70;;;;;;5022531;28;20631;-73
2023/10/01 14:49:24;;;;;;;31.53;6.73;;;19.60;67.90;;;;;;5020051;28;20195;-69
2023/10/01 14:51:56;;;;;;;35.13;6.30;;;19.60;68.00;;;;;;5029217;28;20184;-73
2023/10/01 14:54:25;;;;;;;33.13;7.23;;;19.60;67.50;;;;;;5027245;28;20208;-69
2023/10/01 14:56:55;;;;;;;23.73;5.43;;;19.70;67.20;;;;;;5015326;28;20184;-69
2023/10/01 14:59:30;;;;;;;32.73;6.10;;;19.70;67.00;;;;;;5014957;28;20320;-70
2023/10/01 15:01:57;;;;;;;39.57;7.47;;;19.60;67.10;;;;;;5025291;28;20180;-70
2023/10/01 15:04:29;;;;;;;38.57;6.87;;;19.60;67.00;;;;;;5025733;28;20187;-70
2023/10/01 15:06:57;;;;;;;36.40;6.23;;;19.60;67.30;;;;;;5027075;28;20188;-71
2023/10/01 15:09:35;;;;;;;32.77;7.27;;;19.60;67.50;;;;;;5023693;28;20913;-71